Terminal Aerodrome Forecast
Issued by NWS

Home | Current Version | Previous Version | Text Only | Print | Product List | Glossary On
Versions: 1 2 3 4 5 6 7 8 9 10 11 12 13 14 15 16 17 18 19 20 21 22 23 24 25 26 27 28 29 30 31 32 33 34 35 36 37 38 39 40 41 42 43 44 45 46 47 48 49 50
000
FTUS45 KBOU 040528
TAFAPA
TAF
KAPA 040528Z 0406/0506 04010KT 2SM -SN BR SCT005 OVC010
      TEMPO 0406/0408 1/2SM SN VV005
     FM041000 02008KT 2SM -SN BR SCT008 OVC015
     FM041500 VRB05KT P6SM VCSH SCT015 BKN025
     FM041800 07008KT P6SM FEW025 BKN050
     FM042100 11008KT P6SM FEW030 SCT050
     FM050200 16009KT P6SM SKC=

USA.gov is the U.S. government's official web portal to all federal, state and local government web resources and services.